sensor_id;sensor_type;location;lat;lon;timestamp;pressure;altitude;pressure_sealevel;temperature;humidity
74437;BME280;62868;52.360;30.424;2023-08-30T00:00:53;1020.4;;;23.4;61.4
74437;BME280;62868;52.360;30.424;2023-08-30T00:06:02;1020.4;;;23.4;61.6
74437;BME280;62868;52.360;30.424;2023-08-30T00:10:59;1020.4;;;23.3;61.8
74437;BME280;62868;52.360;30.424;2023-08-30T00:15:35;1020.3;;;23.2;61.9
74437;BME280;62868;52.360;30.424;2023-08-30T00:20:35;1020.3;;;23.2;62.1
74437;BME280;62868;52.360;30.424;2023-08-30T00:25:37;1020.2;;;23.2;62.2
74437;BME280;62868;52.360;30.424;2023-08-30T00:31:09;1020.3;;;23.2;62.2
74437;BME280;62868;52.360;30.424;2023-08-30T00:35:33;1020.3;;;23.2;62.4
74437;BME280;62868;52.360;30.424;2023-08-30T00:40:57;1020.3;;;23.2;62.6
74437;BME280;62868;52.360;30.424;2023-08-30T00:45:43;1020.3;;;23.2;62.7
74437;BME280;62868;52.360;30.424;2023-08-30T00:50:57;1020.2;;;23.1;62.9
74437;BME280;62868;52.360;30.424;2023-08-30T00:56:09;1020.2;;;23.1;63
74437;BME280;62868;52.360;30.424;2023-08-30T01:00:49;1020.2;;;23.1;63.1
74437;BME280;62868;52.360;30.424;2023-08-30T01:05:57;1020.2;;;23.1;63.3
74437;BME280;62868;52.360;30.424;2023-08-30T01:10:35;1020.2;;;23.1;63.3
74437;BME280;62868;52.360;30.424;2023-08-30T01:15:45;1020.2;;;23;63.5
74437;BME280;62868;52.360;30.424;2023-08-30T01:21:12;1020.2;;;22.9;63.7
74437;BME280;62868;52.360;30.424;2023-08-30T01:25:45;1020.1;;;22.8;63.9
74437;BME280;62868;52.360;30.424;2023-08-30T01:30:57;1020.1;;;22.7;64.1
74437;BME280;62868;52.360;30.424;2023-08-30T01:35:43;1020.1;;;22.7;64.3
74437;BME280;62868;52.360;30.424;2023-08-30T01:40:57;1020.1;;;22.7;64.5
74437;BME280;62868;52.360;30.424;2023-08-30T01:46:09;1020.1;;;22.6;64.7
74437;BME280;62868;52.360;30.424;2023-08-30T01:50:44;1020.1;;;22.6;64.7
74437;BME280;62868;52.360;30.424;2023-08-30T01:55:37;1020.1;;;22.6;64.7
74437;BME280;62868;52.360;30.424;2023-08-30T02:00:41;1020.1;;;22.6;64.9
74437;BME280;62868;52.360;30.424;2023-08-30T02:05:31;1020.1;;;22.6;65.1
74437;BME280;62868;52.360;30.424;2023-08-30T02:11:11;1020.1;;;22.6;65.2
74437;BME280;62868;52.360;30.424;2023-08-30T02:16:01;1020;;;22.6;65.4
74437;BME280;62868;52.360;30.424;2023-08-30T02:20:57;1020;;;22.6;65.5
74437;BME280;62868;52.360;30.424;2023-08-30T02:25:44;1020.1;;;22.6;65.5
74437;BME280;62868;52.360;30.424;2023-08-30T02:30:57;1020.1;;;22.6;65.7
74437;BME280;62868;52.360;30.424;2023-08-30T02:36:09;1020.1;;;22.7;65.8
74437;BME280;62868;52.360;30.424;2023-08-30T02:40:49;1020;;;22.7;65.7
74437;BME280;62868;52.360;30.424;2023-08-30T02:45:31;1020;;;22.7;65.8
74437;BME280;62868;52.360;30.424;2023-08-30T02:50:37;1019.9;;;22.7;66
74437;BME280;62868;52.360;30.424;2023-08-30T02:55:57;1019.8;;;22.7;66
74437;BME280;62868;52.360;30.424;2023-08-30T03:01:09;1019.8;;;22.6;66.3
74437;BME280;62868;52.360;30.424;2023-08-30T03:05:55;1019.7;;;22.6;66.3
74437;BME280;62868;52.360;30.424;2023-08-30T03:10:33;1019.6;;;22.6;66.4
74437;BME280;62868;52.360;30.424;2023-08-30T03:15:49;1019.7;;;22.6;66.5
74437;BME280;62868;52.360;30.424;2023-08-30T03:20:59;1019.6;;;22.7;66.4
74437;BME280;62868;52.360;30.424;2023-08-30T03:26:10;1019.5;;;22.7;66.4
74437;BME280;62868;52.360;30.424;2023-08-30T03:30:37;1019.5;;;22.8;66.3
74437;BME280;62868;52.360;30.424;2023-08-30T03:35:58;1019.5;;;22.9;66.2
74437;BME280;62868;52.360;30.424;2023-08-30T03:40:41;1019.4;;;23;66.1
74437;BME280;62868;52.360;30.424;2023-08-30T03:45:37;1019.4;;;23.2;66
74437;BME280;62868;52.360;30.424;2023-08-30T03:51:09;1019.4;;;23.4;65.8
74437;BME280;62868;52.360;30.424;2023-08-30T03:56:01;1019.4;;;24.1;64.6
74437;BME280;62868;52.360;30.424;2023-08-30T04:00:45;1019.4;;;25.4;62.1
74437;BME280;62868;52.360;30.424;2023-08-30T04:05:43;1019.4;;;26.2;60.5
74437;BME280;62868;52.360;30.424;2023-08-30T04:10:57;1019.3;;;26.7;59.6
74437;BME280;62868;52.360;30.424;2023-08-30T04:16:09;1019.3;;;26.2;61.1
74437;BME280;62868;52.360;30.424;2023-08-30T04:20:49;1019.2;;;25.8;62.1
74437;BME280;62868;52.360;30.424;2023-08-30T04:25:52;1019.2;;;25.7;62.3
74437;BME280;62868;52.360;30.424;2023-08-30T04:30:31;1019.2;;;25.8;62.3
74437;BME280;62868;52.360;30.424;2023-08-30T04:36:01;1019.2;;;25.9;62.1
74437;BME280;62868;52.360;30.424;2023-08-30T04:41:09;1019.2;;;26;61.9
74437;BME280;62868;52.360;30.424;2023-08-30T04:46:01;1019.2;;;26.1;61.7
74437;BME280;62868;52.360;30.424;2023-08-30T04:50:58;1019.2;;;26.3;61.4
74437;BME280;62868;52.360;30.424;2023-08-30T04:55:43;1019.2;;;26.6;61
74437;BME280;62868;52.360;30.424;2023-08-30T05:00:51;1019.3;;;26.8;60.7
74437;BME280;62868;52.360;30.424;2023-08-30T05:05:44;1019.3;;;27.1;60.3
74437;BME280;62868;52.360;30.424;2023-08-30T05:10:53;1019.2;;;27.3;60
74437;BME280;62868;52.360;30.424;2023-08-30T05:15:31;1019.1;;;27.6;59.6
74437;BME280;62868;52.360;30.424;2023-08-30T05:20:31;1019.2;;;27.7;59.4
74437;BME280;62868;52.360;30.424;2023-08-30T05:26:03;1019.2;;;28;58.9
74437;BME280;62868;52.360;30.424;2023-08-30T05:31:11;1019.2;;;28.3;58.4
74437;BME280;62868;52.360;30.424;2023-08-30T05:36:03;1019.2;;;28.4;58.1
74437;BME280;62868;52.360;30.424;2023-08-30T05:40:59;1019.2;;;28.7;57.7
74437;BME280;62868;52.360;30.424;2023-08-30T05:45:31;1019.3;;;28.9;57.3
74437;BME280;62868;52.360;30.424;2023-08-30T05:50:33;1019.3;;;29;57
74437;BME280;62868;52.360;30.424;2023-08-30T05:56:11;1019.3;;;29.5;56.4
74437;BME280;62868;52.360;30.424;2023-08-30T06:00:31;1019.4;;;30;55.8
74437;BME280;62868;52.360;30.424;2023-08-30T06:05:59;1019.4;;;30.2;55.4
74437;BME280;62868;52.360;30.424;2023-08-30T06:10:31;1019.4;;;30.4;55
74437;BME280;62868;52.360;30.424;2023-08-30T06:16:03;1019.4;;;30.6;54.6
74437;BME280;62868;52.360;30.424;2023-08-30T06:21:11;1019.5;;;30.9;54
74437;BME280;62868;52.360;30.424;2023-08-30T06:25:54;1019.5;;;31.3;53.3
74437;BME280;62868;52.360;30.424;2023-08-30T06:30:39;1019.5;;;31.5;53
74437;BME280;62868;52.360;30.424;2023-08-30T06:35:55;1019.5;;;31.7;52.7
74437;BME280;62868;52.360;30.424;2023-08-30T06:40:51;1019.4;;;32.1;52
74437;BME280;62868;52.360;30.424;2023-08-30T06:46:11;1019.4;;;32.3;51.5
74437;BME280;62868;52.360;30.424;2023-08-30T06:51:13;1019.4;;;32.7;51
74437;BME280;62868;52.360;30.424;2023-08-30T06:55:37;1019.4;;;32.9;50.5
74437;BME280;62868;52.360;30.424;2023-08-30T07:00:31;1019.3;;;33;49.9
74437;BME280;62868;52.360;30.424;2023-08-30T07:05:43;1019.3;;;33.1;49.4
74437;BME280;62868;52.360;30.424;2023-08-30T07:11:11;1019.3;;;33.3;48.7
74437;BME280;62868;52.360;30.424;2023-08-30T07:16:01;1019.4;;;33.6;48.2
74437;BME280;62868;52.360;30.424;2023-08-30T07:20:57;1019.4;;;33.8;47.8
74437;BME280;62868;52.360;30.424;2023-08-30T07:25:31;1019.4;;;34;47.3
74437;BME280;62868;52.360;30.424;2023-08-30T07:31:11;1019.4;;;34.3;46.9
74437;BME280;62868;52.360;30.424;2023-08-30T07:36:11;1019.3;;;34.5;46.4
74437;BME280;62868;52.360;30.424;2023-08-30T07:40:51;1019.3;;;34.7;45.9
74437;BME280;62868;52.360;30.424;2023-08-30T07:45:31;1019.3;;;34.9;45.5
74437;BME280;62868;52.360;30.424;2023-08-30T07:50:47;1019.3;;;35.3;45.1
74437;BME280;62868;52.360;30.424;2023-08-30T07:56:04;1019.3;;;35.6;44.6
74437;BME280;62868;52.360;30.424;2023-08-30T08:01:11;1019.3;;;35.3;44.5
74437;BME280;62868;52.360;30.424;2023-08-30T08:05:53;1019.3;;;35.2;44.5
74437;BME280;62868;52.360;30.424;2023-08-30T08:10:59;1019.3;;;35.3;44.2
74437;BME280;62868;52.360;30.424;2023-08-30T08:15:37;1019.3;;;35.5;44.1
74437;BME280;62868;52.360;30.424;2023-08-30T08:20:38;1019.3;;;35.6;43.7
74437;BME280;62868;52.360;30.424;2023-08-30T08:26:11;1019.2;;;35.4;43.6
74437;BME280;62868;52.360;30.424;2023-08-30T08:30:45;1019.2;;;35.5;43.2
74437;BME280;62868;52.360;30.424;2023-08-30T08:35:31;1019.3;;;35.7;42.7
74437;BME280;62868;52.360;30.424;2023-08-30T08:40:39;1019.2;;;35.8;42.5
74437;BME280;62868;52.360;30.424;2023-08-30T08:45:41;1019.2;;;36;42.1
74437;BME280;62868;52.360;30.424;2023-08-30T08:51:11;1019.1;;;36.3;41.8
74437;BME280;62868;52.360;30.424;2023-08-30T08:55:33;1019.1;;;36.6;41.3
74437;BME280;62868;52.360;30.424;2023-08-30T09:00:59;1019;;;36.9;40.8
74437;BME280;62868;52.360;30.424;2023-08-30T09:06:11;1019;;;37.3;40.2
74437;BME280;62868;52.360;30.424;2023-08-30T09:10:51;1019;;;37.5;39.7
74437;BME280;62868;52.360;30.424;2023-08-30T09:15:59;1019;;;37.4;39.6
74437;BME280;62868;52.360;30.424;2023-08-30T09:20:37;1019;;;37.5;39
74437;BME280;62868;52.360;30.424;2023-08-30T09:25:31;1019;;;37.7;38.5
74437;BME280;62868;52.360;30.424;2023-08-30T09:30:31;1019;;;38;38.1
74437;BME280;62868;52.360;30.424;2023-08-30T09:36:12;1019;;;38.1;37.7
74437;BME280;62868;52.360;30.424;2023-08-30T09:41:13;1019;;;38.1;37.4
74437;BME280;62868;52.360;30.424;2023-08-30T09:46:12;1019;;;38.1;37.1
74437;BME280;62868;52.360;30.424;2023-08-30T09:50:34;1018.9;;;38.3;36.9
74437;BME280;62868;52.360;30.424;2023-08-30T09:56:11;1018.9;;;38.2;36.6
74437;BME280;62868;52.360;30.424;2023-08-30T10:01:10;1018.8;;;38.3;36.3
74437;BME280;62868;52.360;30.424;2023-08-30T10:05:40;1018.8;;;38.6;35.8
74437;BME280;62868;52.360;30.424;2023-08-30T10:11:12;1018.8;;;38.6;35.7
74437;BME280;62868;52.360;30.424;2023-08-30T10:15:53;1018.8;;;38.8;35.7
74437;BME280;62868;52.360;30.424;2023-08-30T10:20:38;1018.8;;;38.6;35.7
74437;BME280;62868;52.360;30.424;2023-08-30T10:25:38;1018.8;;;38.2;35.8
74437;BME280;62868;52.360;30.424;2023-08-30T10:31:10;1018.8;;;37.6;35.9
74437;BME280;62868;52.360;30.424;2023-08-30T10:36:12;1018.8;;;37.6;35.7
74437;BME280;62868;52.360;30.424;2023-08-30T10:41:05;1018.7;;;37.8;35.3
74437;BME280;62868;52.360;30.424;2023-08-30T10:46:12;1018.7;;;38.2;34.9
74437;BME280;62868;52.360;30.424;2023-08-30T10:50:32;1018.7;;;38.4;34.6
74437;BME280;62868;52.360;30.424;2023-08-30T10:56:03;1018.6;;;38.2;34.5
74437;BME280;62868;52.360;30.424;2023-08-30T11:00:42;1018.5;;;38.4;34.2
74437;BME280;62868;52.360;30.424;2023-08-30T11:05:32;1018.5;;;38.6;34.1
74437;BME280;62868;52.360;30.424;2023-08-30T11:10:32;1018.4;;;38.8;33.8
74437;BME280;62868;52.360;30.424;2023-08-30T11:15:47;1018.3;;;39.2;33.3
74437;BME280;62868;52.360;30.424;2023-08-30T11:21:12;1018.3;;;39.6;33.1
74437;BME280;62868;52.360;30.424;2023-08-30T11:26:12;1018.3;;;39.2;33.5
74437;BME280;62868;52.360;30.424;2023-08-30T11:31:00;1018.2;;;38.9;33.5
74437;BME280;62868;52.360;30.424;2023-08-30T11:36:12;1018.2;;;38.3;33.9
74437;BME280;62868;52.360;30.424;2023-08-30T11:40:38;1018.1;;;37.6;34.3
74437;BME280;62868;52.360;30.424;2023-08-30T11:45:58;1018;;;37.4;34.2
74437;BME280;62868;52.360;30.424;2023-08-30T11:50:54;1017.9;;;37.3;34.1
74437;BME280;62868;52.360;30.424;2023-08-30T11:55:32;1017.8;;;37.3;34
74437;BME280;62868;52.360;30.424;2023-08-30T12:00:42;1017.8;;;37.4;33.8
74437;BME280;62868;52.360;30.424;2023-08-30T12:05:56;1017.7;;;37.3;33.9
74437;BME280;62868;52.360;30.424;2023-08-30T12:11:17;1017.6;;;37.5;33.7
74437;BME280;62868;52.360;30.424;2023-08-30T12:16:14;1017.6;;;37.8;33.4
74437;BME280;62868;52.360;30.424;2023-08-30T12:21:13;1017.6;;;37.4;33.6
74437;BME280;62868;52.360;30.424;2023-08-30T12:26:12;1017.5;;;37.3;33.6
74437;BME280;62868;52.360;30.424;2023-08-30T12:30:46;1017.4;;;37;33.8
74437;BME280;62868;52.360;30.424;2023-08-30T12:35:58;1017.4;;;36.7;34
74437;BME280;62868;52.360;30.424;2023-08-30T12:40:32;1017.3;;;36.5;34
74437;BME280;62868;52.360;30.424;2023-08-30T12:45:52;1017.3;;;36.2;34.2
74437;BME280;62868;52.360;30.424;2023-08-30T12:50:32;1017.3;;;36.1;34.4
74437;BME280;62868;52.360;30.424;2023-08-30T12:55:48;1017.3;;;35.9;34.7
74437;BME280;62868;52.360;30.424;2023-08-30T13:00:56;1017.3;;;35.6;35
74437;BME280;62868;52.360;30.424;2023-08-30T13:05:56;1017.2;;;35.1;35.7
74437;BME280;62868;52.360;30.424;2023-08-30T13:11:12;1017.2;;;34.7;36.2
74437;BME280;62868;52.360;30.424;2023-08-30T13:16:00;1017.2;;;34.8;36.3
74437;BME280;62868;52.360;30.424;2023-08-30T13:20:53;1017.2;;;34.9;36.3
74437;BME280;62868;52.360;30.424;2023-08-30T13:26:12;1017.1;;;34.9;36.6
74437;BME280;62868;52.360;30.424;2023-08-30T13:30:43;1017.1;;;34.6;37.2
74437;BME280;62868;52.360;30.424;2023-08-30T13:35:32;1017.1;;;34.4;37.5
74437;BME280;62868;52.360;30.424;2023-08-30T13:40:57;1017.1;;;34.1;37.9
74437;BME280;62868;52.360;30.424;2023-08-30T13:45:32;1017.3;;;33.9;38.4
74437;BME280;62868;52.360;30.424;2023-08-30T13:50:52;1017.3;;;33.6;38.7
74437;BME280;62868;52.360;30.424;2023-08-30T13:55:50;1017.2;;;33.5;39
74437;BME280;62868;52.360;30.424;2023-08-30T14:01:12;1017.1;;;33.6;39.1
74437;BME280;62868;52.360;30.424;2023-08-30T14:06:12;1016.9;;;33.8;39
74437;BME280;62868;52.360;30.424;2023-08-30T14:10:52;1016.8;;;33.7;39.1
74437;BME280;62868;52.360;30.424;2023-08-30T14:16:12;1016.8;;;33.6;39.5
74437;BME280;62868;52.360;30.424;2023-08-30T14:20:38;1017.1;;;33.4;39.8
74437;BME280;62868;52.360;30.424;2023-08-30T14:25:32;1017.4;;;33.1;40.1
74437;BME280;62868;52.360;30.424;2023-08-30T14:30:56;1017.3;;;32.8;40.3
74437;BME280;62868;52.360;30.424;2023-08-30T14:35:32;1017.3;;;32.5;40.3
74437;BME280;62868;52.360;30.424;2023-08-30T14:40:57;1017.3;;;32.2;40.2
74437;BME280;62868;52.360;30.424;2023-08-30T14:45:58;1017.3;;;31.9;40.2
74437;BME280;62868;52.360;30.424;2023-08-30T14:51:12;1017.4;;;31.7;40.5
74437;BME280;62868;52.360;30.424;2023-08-30T14:56:12;1017.4;;;31.5;40.5
74437;BME280;62868;52.360;30.424;2023-08-30T15:00:52;1017.5;;;31.4;40.7
74437;BME280;62868;52.360;30.424;2023-08-30T15:06:08;1017.4;;;31.4;41
74437;BME280;62868;52.360;30.424;2023-08-30T15:10:38;1017.4;;;31.4;41.2
74437;BME280;62868;52.360;30.424;2023-08-30T15:15:46;1017.4;;;31.5;41.4
74437;BME280;62868;52.360;30.424;2023-08-30T15:21:10;1017.4;;;31.5;41.7
74437;BME280;62868;52.360;30.424;2023-08-30T15:26:04;1017.4;;;31.5;42
74437;BME280;62868;52.360;30.424;2023-08-30T15:30:56;1017.4;;;31.6;42.1
74437;BME280;62868;52.360;30.424;2023-08-30T15:35:57;1017.3;;;31.7;42.3
74437;BME280;62868;52.360;30.424;2023-08-30T15:41:10;1017.4;;;31.8;42.4
74437;BME280;62868;52.360;30.424;2023-08-30T15:45:44;1017.4;;;31.8;42.5
74437;BME280;62868;52.360;30.424;2023-08-30T15:50:32;1017.4;;;31.7;42.7
74437;BME280;62868;52.360;30.424;2023-08-30T15:56:12;1017.5;;;31.6;42.9
74437;BME280;62868;52.360;30.424;2023-08-30T16:00:48;1017.4;;;31.4;43.2
74437;BME280;62868;52.360;30.424;2023-08-30T16:05:32;1017.4;;;31.3;43.3
74437;BME280;62868;52.360;30.424;2023-08-30T16:10:51;1017.3;;;31.1;43.7
74437;BME280;62868;52.360;30.424;2023-08-30T16:15:32;1017.4;;;30.8;44
74437;BME280;62868;52.360;30.424;2023-08-30T16:20:56;1017.3;;;30.7;44.3
74437;BME280;62868;52.360;30.424;2023-08-30T16:25:56;1017.4;;;30.5;44.5
74437;BME280;62868;52.360;30.424;2023-08-30T16:31:12;1017.4;;;30.4;44.6
74437;BME280;62868;52.360;30.424;2023-08-30T16:36:12;1017.4;;;30.2;44.8
74437;BME280;62868;52.360;30.424;2023-08-30T16:40:46;1017.4;;;30.1;45.1
74437;BME280;62868;52.360;30.424;2023-08-30T16:46:10;1017.5;;;30;45.3
74437;BME280;62868;52.360;30.424;2023-08-30T16:50:32;1017.4;;;29.9;45.4
74437;BME280;62868;52.360;30.424;2023-08-30T16:55:38;1017.5;;;29.8;45.7
74437;BME280;62868;52.360;30.424;2023-08-30T17:00:34;1017.5;;;29.6;46
74437;BME280;62868;52.360;30.424;2023-08-30T17:05:48;1017.6;;;29.6;46.1
74437;BME280;62868;52.360;30.424;2023-08-30T17:10:32;1017.6;;;29.5;46.4
74437;BME280;62868;52.360;30.424;2023-08-30T17:15:34;1017.7;;;29.3;46.7
74437;BME280;62868;52.360;30.424;2023-08-30T17:20:44;1017.8;;;29.3;46.9
74437;BME280;62868;52.360;30.424;2023-08-30T17:26:12;1017.8;;;29.2;47.1
74437;BME280;62868;52.360;30.424;2023-08-30T17:31:04;1017.8;;;29.1;47.3
74437;BME280;62868;52.360;30.424;2023-08-30T17:35:38;1017.8;;;29;47.5
74437;BME280;62868;52.360;30.424;2023-08-30T17:40:38;1017.9;;;28.9;47.6
74437;BME280;62868;52.360;30.424;2023-08-30T17:45:46;1017.9;;;28.8;47.9
74437;BME280;62868;52.360;30.424;2023-08-30T17:51:10;1018;;;28.7;48.1
74437;BME280;62868;52.360;30.424;2023-08-30T17:55:52;1018.1;;;28.6;48.3
74437;BME280;62868;52.360;30.424;2023-08-30T18:00:32;1018.1;;;28.4;48.6
74437;BME280;62868;52.360;30.424;2023-08-30T18:05:59;1018;;;28.3;48.8
74437;BME280;62868;52.360;30.424;2023-08-30T18:10:44;1018.1;;;28.1;49.1
74437;BME280;62868;52.360;30.424;2023-08-30T18:16:12;1018.1;;;28;49.4
74437;BME280;62868;52.360;30.424;2023-08-30T18:20:48;1018.1;;;27.9;49.6
74437;BME280;62868;52.360;30.424;2023-08-30T18:25:36;1018.1;;;27.8;49.7
74437;BME280;62868;52.360;30.424;2023-08-30T18:30:38;1018.1;;;27.7;49.8
74437;BME280;62868;52.360;30.424;2023-08-30T18:35:46;1018;;;27.6;50.1
74437;BME280;62868;52.360;30.424;2023-08-30T18:40:58;1018.1;;;27.5;50.3
74437;BME280;62868;52.360;30.424;2023-08-30T18:45:32;1018.1;;;27.4;50.5
74437;BME280;62868;52.360;30.424;2023-08-30T18:50:32;1018.2;;;27.4;50.7
74437;BME280;62868;52.360;30.424;2023-08-30T18:55:56;1018.2;;;27.3;50.8
74437;BME280;62868;52.360;30.424;2023-08-30T19:00:46;1018.2;;;27.2;51
74437;BME280;62868;52.360;30.424;2023-08-30T19:06:12;1018.2;;;27.2;51.1
74437;BME280;62868;52.360;30.424;2023-08-30T19:10:54;1018.2;;;27.1;51.1
74437;BME280;62868;52.360;30.424;2023-08-30T19:15:38;1018.1;;;27;51.3
74437;BME280;62868;52.360;30.424;2023-08-30T19:20:44;1018.2;;;26.9;51.5
74437;BME280;62868;52.360;30.424;2023-08-30T19:25:32;1018.3;;;26.9;51.5
74437;BME280;62868;52.360;30.424;2023-08-30T19:31:10;1018.4;;;27;51.6
74437;BME280;62868;52.360;30.424;2023-08-30T19:35:42;1018.5;;;26.9;51.8
74437;BME280;62868;52.360;30.424;2023-08-30T19:40:32;1018.6;;;26.8;52
74437;BME280;62868;52.360;30.424;2023-08-30T19:46:01;1018.6;;;26.8;52.1
74437;BME280;62868;52.360;30.424;2023-08-30T19:50:50;1018.5;;;26.7;52.2
74437;BME280;62868;52.360;30.424;2023-08-30T19:56:06;1018.5;;;26.7;52.2
74437;BME280;62868;52.360;30.424;2023-08-30T20:01:04;1018.6;;;26.6;52.2
74437;BME280;62868;52.360;30.424;2023-08-30T20:05:46;1018.6;;;26.5;52.4
74437;BME280;62868;52.360;30.424;2023-08-30T20:10:32;1018.7;;;26.4;52.6
74437;BME280;62868;52.360;30.424;2023-08-30T20:15:55;1018.8;;;26.4;52.6
74437;BME280;62868;52.360;30.424;2023-08-30T20:21:13;1018.8;;;26.3;52.8
74437;BME280;62868;52.360;30.424;2023-08-30T20:25:32;1018.9;;;26.2;53
74437;BME280;62868;52.360;30.424;2023-08-30T20:31:00;1019;;;26.2;53.1
74437;BME280;62868;52.360;30.424;2023-08-30T20:35:50;1019;;;26.1;53.2
74437;BME280;62868;52.360;30.424;2023-08-30T20:40:32;1019.1;;;26;53.4
74437;BME280;62868;52.360;30.424;2023-08-30T20:46:12;1019.1;;;26;53.4
74437;BME280;62868;52.360;30.424;2023-08-30T20:50:34;1019.1;;;25.9;53.5
74437;BME280;62868;52.360;30.424;2023-08-30T20:55:46;1019.1;;;25.8;53.7
74437;BME280;62868;52.360;30.424;2023-08-30T21:00:32;1019.1;;;25.8;53.8
74437;BME280;62868;52.360;30.424;2023-08-30T21:05:52;1019.1;;;25.7;54
74437;BME280;62868;52.360;30.424;2023-08-30T21:11:12;1019.1;;;25.6;54.2
74437;BME280;62868;52.360;30.424;2023-08-30T21:15:48;1019.1;;;25.6;54.3
74437;BME280;62868;52.360;30.424;2023-08-30T21:20:44;1019.1;;;25.5;54.5
74437;BME280;62868;52.360;30.424;2023-08-30T21:25:56;1019.1;;;25.4;54.5
74437;BME280;62868;52.360;30.424;2023-08-30T21:31:00;1019.1;;;25.3;54.7
74437;BME280;62868;52.360;30.424;2023-08-30T21:36:12;1019.1;;;25.2;54.9
74437;BME280;62868;52.360;30.424;2023-08-30T21:40:35;1019.1;;;25;55.3
74437;BME280;62868;52.360;30.424;2023-08-30T21:45:52;1019.1;;;24.8;55.5
74437;BME280;62868;52.360;30.424;2023-08-30T21:50:32;1019.1;;;24.7;55.7
74437;BME280;62868;52.360;30.424;2023-08-30T21:56:04;1019.1;;;24.7;55.9
74437;BME280;62868;52.360;30.424;2023-08-30T22:01:12;1019.1;;;24.5;56.2
74437;BME280;62868;52.360;30.424;2023-08-30T22:05:32;1019.1;;;24.4;56.3
74437;BME280;62868;52.360;30.424;2023-08-30T22:10:44;1019.1;;;24.3;56.5
74437;BME280;62868;52.360;30.424;2023-08-30T22:15:56;1019;;;24.2;56.8
74437;BME280;62868;52.360;30.424;2023-08-30T22:20:58;1019;;;24;57.1
74437;BME280;62868;52.360;30.424;2023-08-30T22:26:12;1018.9;;;23.8;57.5
74437;BME280;62868;52.360;30.424;2023-08-30T22:31:04;1018.9;;;23.7;57.8
74437;BME280;62868;52.360;30.424;2023-08-30T22:35:38;1018.9;;;23.6;58
74437;BME280;62868;52.360;30.424;2023-08-30T22:40:38;1018.9;;;23.5;58.2
74437;BME280;62868;52.360;30.424;2023-08-30T22:45:32;1018.8;;;23.4;58.4
74437;BME280;62868;52.360;30.424;2023-08-30T22:51:12;1018.7;;;23.3;58.6
74437;BME280;62868;52.360;30.424;2023-08-30T22:55:32;1018.7;;;23.2;58.8
74437;BME280;62868;52.360;30.424;2023-08-30T23:00:38;1018.6;;;23.1;59.1
74437;BME280;62868;52.360;30.424;2023-08-30T23:05:56;1018.5;;;23;59.4
74437;BME280;62868;52.360;30.424;2023-08-30T23:11:04;1018.5;;;22.9;59.5
74437;BME280;62868;52.360;30.424;2023-08-30T23:16:12;1018.5;;;22.9;59.7
74437;BME280;62868;52.360;30.424;2023-08-30T23:21:04;1018.4;;;22.9;59.9
74437;BME280;62868;52.360;30.424;2023-08-30T23:25:46;1018.4;;;22.9;60
74437;BME280;62868;52.360;30.424;2023-08-30T23:30:38;1018.3;;;22.8;60.1
74437;BME280;62868;52.360;30.424;2023-08-30T23:35:38;1018.3;;;22.8;60
74437;BME280;62868;52.360;30.424;2023-08-30T23:41:12;1018.4;;;22.8;60.2
74437;BME280;62868;52.360;30.424;2023-08-30T23:45:58;1018.4;;;22.8;60.1
74437;BME280;62868;52.360;30.424;2023-08-30T23:51:00;1018.4;;;22.8;60.1
74437;BME280;62868;52.360;30.424;2023-08-30T23:56:12;1018.3;;;22.8;59.9
